Time;durP1;ratioP1;P1;durP2;ratioP2;P2;SDS_P1;SDS_P2;PMS_P1;PMS_P2;Temp;Humidity;BMP_temperature;BMP_pressure;BME280_temperature;BME280_humidity;BME280_pressure;Samples;Min_cycle;Max_cycle;Signal;HPM_P1;HPM_P2
2022/07/18 00:00:06;;;;;;;15.77;6.00;;;;;;;17.52;82.75;102386.81;5019171;28;20346;-55
2022/07/18 00:02:32;;;;;;;16.88;5.30;;;;;;;17.50;82.15;102385.31;5018805;28;20014;-54
2022/07/18 00:04:57;;;;;;;12.27;5.47;;;;;;;17.52;81.88;102392.22;4989830;28;20490;-54
2022/07/18 00:07:22;;;;;;;14.52;5.38;;;;;;;17.46;83.79;102390.19;5009934;28;20025;-54
2022/07/18 00:09:48;;;;;;;17.90;5.60;;;;;;;17.42;83.32;102379.91;5017369;28;20029;-54
2022/07/18 00:12:13;;;;;;;17.67;5.30;;;;;;;17.36;83.15;102377.88;5004382;28;20088;-54
2022/07/18 00:14:39;;;;;;;12.85;5.65;;;;;;;17.37;83.01;102372.31;5017945;28;20018;-53
2022/07/18 00:17:06;;;;;;;11.48;5.47;;;;;;;17.35;82.42;102374.34;5001693;28;20040;-53
2022/07/18 00:19:31;;;;;;;13.07;5.43;;;;;;;17.26;82.35;102369.94;5016100;28;20017;-53
2022/07/18 00:21:57;;;;;;;12.68;5.50;;;;;;;17.29;82.71;102366.91;5016259;28;20091;-54
2022/07/18 00:24:22;;;;;;;16.20;5.43;;;;;;;17.25;82.84;102366.41;5017273;28;20798;-53
2022/07/18 00:26:48;;;;;;;11.27;5.60;;;;;;;17.23;82.55;102357.63;5017722;28;20176;-54
2022/07/18 00:29:13;;;;;;;9.55;4.95;;;;;;;17.27;83.25;102366.22;5018361;28;20203;-54
2022/07/18 00:31:38;;;;;;;14.50;5.28;;;;;;;17.30;83.74;102365.91;5016896;28;20399;-53
2022/07/18 00:34:04;;;;;;;15.05;5.32;;;;;;;17.23;83.89;102352.22;5017769;28;20025;-53
2022/07/18 00:36:30;;;;;;;16.40;5.35;;;;;;;17.16;83.19;102353.91;5017138;28;20021;-53
2022/07/18 00:38:56;;;;;;;14.20;5.32;;;;;;;17.13;83.30;102354.25;5017976;28;20026;-53
2022/07/18 00:41:22;;;;;;;14.75;4.90;;;;;;;17.12;82.39;102355.25;4998078;28;20120;-53
2022/07/18 00:43:47;;;;;;;14.13;5.00;;;;;;;17.12;82.67;102345.31;5013989;28;20062;-53
2022/07/18 00:46:13;;;;;;;12.95;5.13;;;;;;;17.07;81.63;102342.25;5008903;28;20064;-54
2022/07/18 00:48:40;;;;;;;11.25;4.80;;;;;;;17.00;81.47;102343.09;5017602;28;20041;-54
2022/07/18 00:51:05;;;;;;;9.55;4.95;;;;;;;16.98;81.65;102358.63;5017073;28;20021;-53
2022/07/18 00:53:31;;;;;;;11.80;5.00;;;;;;;16.90;82.57;102345.94;5017369;28;20017;-53
2022/07/18 00:55:57;;;;;;;13.00;5.10;;;;;;;16.85;83.18;102351.00;5010634;28;20017;-54
2022/07/18 00:58:22;;;;;;;13.55;5.15;;;;;;;16.77;82.71;102349.94;5017598;28;20564;-54
2022/07/18 01:03:31;;;;;;;13.38;4.85;;;;;;;16.77;83.32;102346.41;4991647;28;20545;-53
2022/07/18 01:05:56;;;;;;;9.65;5.28;;;;;;;16.73;83.18;102334.25;5016041;28;20120;-53
2022/07/18 01:08:22;;;;;;;10.98;4.50;;;;;;;16.70;83.06;102329.16;5015694;28;20404;-53
2022/07/18 01:10:47;;;;;;;11.15;4.70;;;;;;;16.68;83.79;102329.34;5017383;28;20459;-53
2022/07/18 01:13:13;;;;;;;8.63;4.82;;;;;;;16.69;83.17;102333.72;5017117;28;20472;-54
2022/07/18 01:15:38;;;;;;;12.13;4.88;;;;;;;16.66;82.36;102328.66;5012441;28;20029;-53
2022/07/18 01:18:04;;;;;;;11.57;4.97;;;;;;;16.66;83.14;102331.34;5011011;28;20014;-52
2022/07/18 01:20:31;;;;;;;13.10;5.15;;;;;;;16.65;84.04;102332.38;4988896;28;20051;-53
2022/07/18 01:22:57;;;;;;;10.95;4.88;;;;;;;16.58;84.20;102326.81;5015821;28;20022;-53
2022/07/18 01:25:23;;;;;;;15.52;5.10;;;;;;;16.59;83.21;102335.72;5015985;28;20712;-53
2022/07/18 01:27:48;;;;;;;14.45;5.13;;;;;;;16.51;82.76;102335.69;5008788;28;20029;-53
2022/07/18 01:30:14;;;;;;;16.25;4.75;;;;;;;16.45;82.56;102326.41;5016928;28;20566;-53
2022/07/18 01:32:40;;;;;;;10.70;4.80;;;;;;;16.48;83.74;102328.78;5016153;28;20472;-53
2022/07/18 01:35:06;;;;;;;13.07;5.22;;;;;;;16.42;83.65;102329.44;5015046;28;20024;-53
2022/07/18 01:37:31;;;;;;;11.85;4.57;;;;;;;16.38;83.76;102326.22;4992524;28;20081;-53
2022/07/18 01:39:56;;;;;;;10.23;4.68;;;;;;;16.32;84.20;102324.16;5008337;28;20035;-53
2022/07/18 01:42:22;;;;;;;12.70;4.55;;;;;;;16.31;84.47;102325.19;5016788;28;20499;-53
2022/07/18 01:44:47;;;;;;;13.07;5.00;;;;;;;16.30;85.20;102320.81;5002621;28;20447;-53
2022/07/18 01:47:12;;;;;;;12.90;4.43;;;;;;;16.27;85.42;102318.44;5013794;28;20543;-54
2022/07/18 01:49:39;;;;;;;11.90;4.65;;;;;;;16.16;85.25;102324.13;5016613;28;20049;-54
2022/07/18 01:52:05;;;;;;;8.93;4.75;;;;;;;16.18;85.32;102316.72;5011913;28;20043;-54
2022/07/18 01:54:33;;;;;;;10.07;4.47;;;;;;;16.18;85.72;102322.94;5015398;28;20037;-53
2022/07/18 01:57:00;;;;;;;11.90;4.70;;;;;;;16.12;84.60;102322.75;5016671;28;20375;-54
2022/07/18 01:59:26;;;;;;;23.48;5.45;;;;;;;16.01;86.06;102316.63;5002180;28;20040;-54
2022/07/18 02:01:51;;;;;;;13.95;4.45;;;;;;;15.98;86.60;102318.81;5016069;28;20384;-54
2022/07/18 02:04:17;;;;;;;19.23;5.07;;;;;;;15.93;86.73;102318.44;5016700;28;20021;-53
2022/07/18 02:06:42;;;;;;;13.68;4.80;;;;;;;15.89;87.25;102319.78;5013919;28;20461;-53
2022/07/18 02:09:10;;;;;;;12.13;5.20;;;;;;;15.88;88.70;102310.00;5002441;28;20110;-53
2022/07/18 02:11:36;;;;;;;23.88;5.15;;;;;;;15.90;87.77;102302.59;5015396;28;20512;-53
2022/07/18 02:14:04;;;;;;;15.80;5.28;;;;;;;15.91;88.12;102297.03;5016548;28;20021;-53
2022/07/18 02:16:30;;;;;;;12.23;4.65;;;;;;;15.89;87.56;102295.53;5008450;28;20029;-53
2022/07/18 02:18:56;;;;;;;10.60;4.43;;;;;;;15.92;88.09;102300.59;5016539;28;20056;-54
2022/07/18 02:21:22;;;;;;;17.27;4.82;;;;;;;15.91;87.94;102298.91;5012808;28;20489;-53
2022/07/18 02:23:47;;;;;;;15.18;4.13;;;;;;;15.90;87.71;102299.91;5015765;28;20060;-53
2022/07/18 02:26:13;;;;;;;14.27;4.55;;;;;;;15.87;87.44;102301.09;5002292;28;20022;-53
2022/07/18 02:28:38;;;;;;;12.75;4.13;;;;;;;15.85;87.50;102295.84;5015792;28;20124;-54
2022/07/18 02:31:05;;;;;;;9.40;4.57;;;;;;;15.78;87.53;102304.72;5015347;28;20017;-54
2022/07/18 02:33:32;;;;;;;13.20;4.85;;;;;;;15.62;88.38;102298.19;5011528;28;20480;-54
2022/07/18 02:35:57;;;;;;;11.20;4.70;;;;;;;15.59;88.18;102303.91;5003949;28;20029;-54
2022/07/18 02:38:23;;;;;;;9.93;4.38;;;;;;;15.51;88.94;102287.69;5015051;28;20025;-53
2022/07/18 02:40:48;;;;;;;17.42;4.90;;;;;;;15.50;89.25;102287.88;5015723;28;20399;-53
2022/07/18 02:43:14;;;;;;;10.30;4.70;;;;;;;15.45;89.94;102285.66;5015404;28;20033;-53
2022/07/18 02:45:39;;;;;;;11.98;4.97;;;;;;;15.47;90.02;102287.16;4991789;28;20494;-54
2022/07/18 02:48:04;;;;;;;13.90;4.93;;;;;;;15.50;89.64;102283.31;5007716;28;20440;-53
2022/07/18 02:50:30;;;;;;;12.93;4.90;;;;;;;15.53;90.00;102285.69;5015499;28;20022;-53
2022/07/18 02:52:56;;;;;;;11.20;4.75;;;;;;;15.55;89.66;102289.06;5019314;28;20385;-53
2022/07/18 02:55:22;;;;;;;8.88;4.43;;;;;;;15.59;89.38;102287.75;5018626;28;20416;-53
2022/07/18 02:57:48;;;;;;;7.82;4.63;;;;;;;15.59;90.79;102293.13;5019791;28;20018;-53
2022/07/18 03:00:14;;;;;;;11.23;4.72;;;;;;;15.56;89.56;102288.06;5019371;28;20087;-53
2022/07/18 03:02:41;;;;;;;12.25;4.70;;;;;;;15.55;89.65;102280.16;5018922;28;20395;-53
2022/07/18 03:05:07;;;;;;;11.20;4.90;;;;;;;15.50;89.23;102287.88;5016702;28;20051;-53
2022/07/18 03:07:32;;;;;;;11.13;5.00;;;;;;;15.42;89.66;102284.09;5016524;28;20278;-53
2022/07/18 03:09:58;;;;;;;10.43;5.07;;;;;;;15.32;90.17;102285.22;5018910;28;20468;-53
2022/07/18 03:12:23;;;;;;;17.23;5.60;;;;;;;15.27;94.40;102277.59;5013699;28;20554;-54
2022/07/18 03:14:49;;;;;;;22.08;5.88;;;;;;;15.26;96.10;102274.06;5005909;28;20075;-53
2022/07/18 03:17:15;;;;;;;21.75;5.90;;;;;;;15.18;97.12;102265.09;5010600;28;20025;-54
2022/07/18 03:19:40;;;;;;;14.98;4.90;;;;;;;15.15;94.96;102270.78;5016853;28;20352;-53
2022/07/18 03:22:05;;;;;;;14.95;5.15;;;;;;;15.13;96.81;102264.72;5018094;28;20105;-54
2022/07/18 03:24:31;;;;;;;23.83;5.93;;;;;;;15.16;98.24;102264.41;5000590;28;20321;-53
2022/07/18 03:26:56;;;;;;;13.98;6.18;;;;;;;15.14;98.77;102256.50;5017962;28;20082;-53
2022/07/18 03:29:22;;;;;;;17.98;5.70;;;;;;;15.15;97.48;102258.16;5018384;28;20079;-53
2022/07/18 03:31:47;;;;;;;15.02;5.28;;;;;;;15.17;97.74;102256.16;5018153;28;20053;-53
2022/07/18 03:34:13;;;;;;;16.98;6.13;;;;;;;15.16;99.83;102264.41;5018082;28;20034;-53
2022/07/18 03:36:38;;;;;;;23.92;6.13;;;;;;;15.15;99.79;102265.41;5016167;28;20112;-53
2022/07/18 03:39:05;;;;;;;21.48;6.00;;;;;;;15.07;100.00;102258.09;5010495;28;20044;-53
2022/07/18 03:41:30;;;;;;;10.38;5.53;;;;;;;15.05;97.70;102255.59;5012250;28;20629;-53
2022/07/18 03:43:55;;;;;;;16.58;5.40;;;;;;;15.03;95.01;102257.56;5018070;28;20066;-53
2022/07/18 03:46:21;;;;;;;10.13;5.30;;;;;;;15.04;95.83;102263.81;5017935;28;20029;-53
2022/07/18 03:48:47;;;;;;;12.38;6.20;;;;;;;15.04;96.15;102258.44;4989425;28;20097;-53
2022/07/18 03:51:12;;;;;;;13.25;5.90;;;;;;;15.02;94.54;102260.41;5016310;28;20030;-53
2022/07/18 03:53:37;;;;;;;14.07;5.90;;;;;;;15.04;95.38;102253.88;5017870;28;20513;-53
2022/07/18 03:56:03;;;;;;;17.73;6.13;;;;;;;15.05;97.09;102244.81;5017853;28;20033;-53
2022/07/18 03:58:29;;;;;;;20.60;5.95;;;;;;;15.08;96.13;102252.56;5018586;28;20441;-53
2022/07/18 04:00:54;;;;;;;16.50;5.95;;;;;;;15.11;96.26;102244.19;5018151;28;20029;-49
2022/07/18 04:03:19;;;;;;;11.93;5.85;;;;;;;15.14;96.70;102245.72;5016706;28;20392;-49
2022/07/18 04:05:45;;;;;;;16.27;6.25;;;;;;;15.16;95.17;102248.28;5016119;28;20412;-49
2022/07/18 04:08:10;;;;;;;11.55;5.50;;;;;;;15.18;94.17;102249.78;5016397;28;20017;-50
2022/07/18 04:10:39;;;;;;;15.57;5.78;;;;;;;15.20;96.59;102250.47;5010662;28;20101;-49
2022/07/18 04:13:05;;;;;;;11.77;5.78;;;;;;;15.24;96.85;102240.22;5014879;28;20025;-49
2022/07/18 04:15:31;;;;;;;15.82;6.25;;;;;;;15.27;95.53;102239.91;5013285;28;20022;-48
2022/07/18 04:17:56;;;;;;;16.60;6.13;;;;;;;15.31;94.58;102241.31;5012652;28;20048;-47
2022/07/18 04:20:22;;;;;;;12.65;6.43;;;;;;;15.38;95.75;102236.13;5015922;28;20021;-47
2022/07/18 04:22:48;;;;;;;12.15;6.20;;;;;;;15.40;94.56;102242.19;5016339;28;20483;-49
2022/07/18 04:25:13;;;;;;;14.77;6.43;;;;;;;15.43;96.22;102239.19;5015641;28;20028;-47
2022/07/18 04:27:39;;;;;;;15.88;6.25;;;;;;;15.44;92.16;102230.97;5011497;28;20025;-49
2022/07/18 04:30:06;;;;;;;18.02;6.22;;;;;;;15.52;95.93;102223.94;5016578;28;20033;-48
2022/07/18 04:32:31;;;;;;;17.25;6.60;;;;;;;15.52;93.37;102222.06;5016466;28;20025;-49
2022/07/18 04:34:56;;;;;;;19.85;6.70;;;;;;;15.53;91.20;102226.47;5014959;28;20091;-47
2022/07/18 04:37:22;;;;;;;14.15;7.00;;;;;;;15.57;90.86;102219.75;5012007;28;20021;-47
2022/07/18 04:39:47;;;;;;;15.32;6.53;;;;;;;15.61;90.29;102218.44;5007009;28;20030;-50
2022/07/18 04:42:12;;;;;;;17.92;7.35;;;;;;;15.66;91.44;102224.19;5015346;28;20021;-51
2022/07/18 04:44:37;;;;;;;15.07;7.05;;;;;;;15.64;92.46;102218.09;5014829;28;20025;-47
2022/07/18 04:47:03;;;;;;;15.32;7.00;;;;;;;15.73;94.52;102226.22;5016652;28;20025;-48
2022/07/18 04:49:28;;;;;;;15.98;6.95;;;;;;;15.76;93.12;102223.22;5015578;28;20025;-48
2022/07/18 04:51:53;;;;;;;12.55;7.15;;;;;;;15.82;92.74;102226.13;5016183;28;20310;-49
2022/07/18 04:54:18;;;;;;;16.80;7.13;;;;;;;15.86;90.73;102223.94;5015287;28;20024;-49
2022/07/18 04:56:44;;;;;;;17.83;7.55;;;;;;;15.92;89.45;102227.84;5016473;28;20013;-50
2022/07/18 04:59:09;;;;;;;25.02;7.13;;;;;;;15.97;87.81;102217.41;5015963;28;20441;-48
2022/07/18 05:01:35;;;;;;;22.00;7.55;;;;;;;16.04;87.29;102215.78;5015821;28;20049;-49
2022/07/18 05:04:00;;;;;;;15.75;7.00;;;;;;;16.11;90.40;102207.88;5017128;28;20108;-50
2022/07/18 05:06:26;;;;;;;14.05;6.95;;;;;;;16.08;88.29;102214.41;5014146;28;20025;-49
2022/07/18 05:08:51;;;;;;;25.00;7.35;;;;;;;16.17;86.30;102231.47;5015690;28;20033;-50
2022/07/18 05:11:16;;;;;;;18.60;7.10;;;;;;;16.23;88.33;102231.66;5015390;28;20018;-48
2022/07/18 05:13:41;;;;;;;17.15;7.28;;;;;;;16.30;88.63;102231.00;5016171;28;20029;-47
2022/07/18 05:16:07;;;;;;;18.73;7.40;;;;;;;16.34;87.25;102227.78;4999854;28;20118;-49
2022/07/18 05:18:32;;;;;;;13.88;6.65;;;;;;;16.42;83.43;102232.38;5015837;28;20032;-49
2022/07/18 05:20:57;;;;;;;17.27;7.25;;;;;;;16.49;86.12;102219.91;5002540;28;20344;-49
2022/07/18 05:23:24;;;;;;;15.80;7.20;;;;;;;16.58;86.35;102227.00;4995412;28;20053;-49
2022/07/18 05:25:49;;;;;;;16.17;7.38;;;;;;;16.65;86.61;102229.88;4996195;28;20021;-49
2022/07/18 05:28:15;;;;;;;19.15;7.80;;;;;;;16.72;82.21;102225.50;4995641;28;20555;-49
2022/07/18 05:30:40;;;;;;;17.35;7.78;;;;;;;16.79;82.60;102234.59;5000067;28;20017;-44
2022/07/18 05:33:05;;;;;;;15.88;7.32;;;;;;;16.87;79.32;102233.78;4983167;28;20033;-50
2022/07/18 05:35:31;;;;;;;16.92;8.20;;;;;;;16.94;78.24;102232.09;4995590;28;20146;-49
2022/07/18 05:37:56;;;;;;;19.17;7.57;;;;;;;16.99;79.90;102234.31;4996759;28;20024;-49
2022/07/18 05:40:21;;;;;;;22.58;7.55;;;;;;;17.04;80.52;102234.63;4996913;28;20017;-50
2022/07/18 05:42:47;;;;;;;17.30;7.78;;;;;;;17.13;81.21;102241.69;4987813;28;20021;-50
2022/07/18 05:45:12;;;;;;;21.60;7.95;;;;;;;17.23;75.63;102236.13;4994989;28;20118;-49
2022/07/18 05:47:37;;;;;;;21.85;7.53;;;;;;;17.29;78.13;102238.16;4994714;28;20140;-51
2022/07/18 05:50:04;;;;;;;21.45;7.38;;;;;;;17.40;75.68;102239.63;4989430;28;20128;-47
2022/07/18 05:52:30;;;;;;;14.93;7.13;;;;;;;17.50;72.42;102240.28;4981032;28;20022;-50
2022/07/18 05:54:55;;;;;;;17.48;7.45;;;;;;;17.58;73.06;102243.97;5005977;28;20025;-50
2022/07/18 05:57:21;;;;;;;19.45;7.57;;;;;;;17.64;72.28;102240.59;4995443;28;20038;-50
2022/07/18 05:59:46;;;;;;;14.98;7.47;;;;;;;17.72;72.90;102237.88;5005762;28;20246;-50
2022/07/18 06:02:11;;;;;;;21.45;8.13;;;;;;;17.81;71.65;102236.81;5007574;28;20307;-48
2022/07/18 06:04:36;;;;;;;18.98;8.15;;;;;;;17.90;69.49;102240.34;5011644;28;20025;-48
2022/07/18 06:07:03;;;;;;;22.80;8.10;;;;;;;18.02;69.61;102247.03;5002947;28;20061;-49
2022/07/18 06:09:30;;;;;;;16.95;8.07;;;;;;;18.11;70.77;102234.34;4997532;28;20030;-48
2022/07/18 06:11:58;;;;;;;21.55;8.20;;;;;;;18.25;68.85;102228.16;4994388;28;20038;-50
2022/07/18 06:14:23;;;;;;;17.00;8.82;;;;;;;18.38;67.34;102224.88;4994484;28;20030;-49
2022/07/18 06:16:48;;;;;;;20.08;8.85;;;;;;;18.48;67.08;102226.50;4994327;28;20445;-47
2022/07/18 06:19:14;;;;;;;24.27;9.30;;;;;;;18.56;66.62;102223.75;4992637;28;20040;-49
2022/07/18 06:21:39;;;;;;;30.70;9.00;;;;;;;18.64;66.19;102224.53;4994258;28;20040;-48
2022/07/18 06:24:05;;;;;;;22.73;8.93;;;;;;;18.75;65.90;102225.94;4993999;28;20032;-49
2022/07/18 06:26:30;;;;;;;18.70;8.57;;;;;;;18.90;66.74;102223.31;4993840;28;20101;-46
2022/07/18 06:28:55;;;;;;;24.90;9.00;;;;;;;19.05;66.82;102214.41;4992324;28;20083;-49
2022/07/18 06:31:21;;;;;;;17.70;9.23;;;;;;;19.16;66.52;102211.22;4993711;28;20425;-47
2022/07/18 06:33:46;;;;;;;16.40;8.75;;;;;;;19.29;65.68;102208.72;4992887;28;20038;-49
2022/07/18 06:36:13;;;;;;;27.95;9.07;;;;;;;19.40;65.35;102204.75;4987556;28;20022;-49
2022/07/18 06:38:39;;;;;;;19.58;9.73;;;;;;;19.51;63.88;102196.13;4994336;28;20179;-48
2022/07/18 06:41:05;;;;;;;19.95;9.68;;;;;;;19.60;64.84;102196.03;4994412;28;20049;-47
2022/07/18 06:43:30;;;;;;;20.70;9.35;;;;;;;19.73;64.45;102194.31;4995131;28;20064;-47
2022/07/18 06:45:57;;;;;;;25.55;9.32;;;;;;;19.88;64.86;102201.66;4995165;28;20107;-46
2022/07/18 06:48:23;;;;;;;20.05;9.25;;;;;;;19.94;62.37;102198.16;4993353;28;20033;-47
2022/07/18 06:50:48;;;;;;;26.23;9.23;;;;;;;19.99;62.68;102198.41;4994269;28;20911;-49
2022/07/18 06:53:13;;;;;;;18.33;8.98;;;;;;;20.05;62.01;102197.66;5002387;28;20210;-47
2022/07/18 06:55:39;;;;;;;27.15;9.63;;;;;;;20.16;63.43;102203.63;5011039;28;20033;-49
2022/07/18 06:58:04;;;;;;;19.75;9.52;;;;;;;20.31;63.74;102202.56;5011388;28;20350;-50
2022/07/18 07:00:29;;;;;;;20.45;9.13;;;;;;;20.45;64.24;102199.97;5006299;28;20034;-48
2022/07/18 07:02:55;;;;;;;24.42;10.02;;;;;;;20.60;62.24;102199.91;5012192;28;20377;-51
2022/07/18 07:05:21;;;;;;;18.83;9.80;;;;;;;20.74;61.92;102196.31;4994383;28;20041;-49
2022/07/18 07:07:47;;;;;;;22.67;9.13;;;;;;;20.89;60.14;102209.78;5014480;28;20522;-49
2022/07/18 07:10:13;;;;;;;25.35;9.65;;;;;;;21.02;60.02;102211.78;5001715;28;20022;-48
2022/07/18 07:12:43;;;;;;;29.77;9.50;;;;;;;21.16;59.37;102210.00;5014457;28;20036;-49
2022/07/18 07:15:09;;;;;;;24.55;9.07;;;;;;;21.29;58.96;102206.53;5013987;28;20481;-50
2022/07/18 07:17:35;;;;;;;19.15;8.63;;;;;;;21.45;58.42;102214.34;5013855;28;20447;-50
2022/07/18 07:20:02;;;;;;;30.75;8.57;;;;;;;21.60;59.24;102206.94;5013113;28;20457;-50
2022/07/18 07:22:27;;;;;;;19.05;9.20;;;;;;;21.82;58.31;102206.00;5014255;28;20087;-51
2022/07/18 07:24:52;;;;;;;19.05;8.48;;;;;;;21.94;59.18;102215.25;5013338;28;21196;-49
2022/07/18 07:27:17;;;;;;;18.55;8.10;;;;;;;22.09;57.96;102215.94;5014915;28;20421;-50
2022/07/18 07:29:43;;;;;;;19.10;8.60;;;;;;;22.12;56.77;102209.25;5014538;28;20049;-49
2022/07/18 07:32:08;;;;;;;18.40;8.50;;;;;;;22.17;54.96;102206.75;5016935;28;20021;-52
2022/07/18 07:34:34;;;;;;;24.33;8.85;;;;;;;22.25;56.23;102201.13;5015636;28;20029;-49
2022/07/18 07:36:59;;;;;;;23.67;8.38;;;;;;;22.35;55.88;102204.31;5015983;28;20118;-47
2022/07/18 07:39:25;;;;;;;19.48;8.63;;;;;;;22.47;56.05;102201.81;5017276;28;20025;-50
2022/07/18 07:41:50;;;;;;;24.20;8.10;;;;;;;22.61;55.34;102205.41;5018094;28;20013;-54
2022/07/18 07:44:15;;;;;;;21.75;8.60;;;;;;;22.78;55.94;102210.44;5010657;28;20148;-54
2022/07/18 07:46:41;;;;;;;28.40;8.07;;;;;;;22.86;53.60;102211.06;5018911;28;20083;-54
2022/07/18 07:49:06;;;;;;;17.73;7.13;;;;;;;22.95;54.68;102206.22;5017668;28;20041;-55
2022/07/18 07:51:31;;;;;;;22.05;7.35;;;;;;;23.08;53.17;102206.25;5017985;28;20040;-54
2022/07/18 07:53:56;;;;;;;17.23;6.95;;;;;;;23.21;53.23;102193.66;5015189;28;20032;-54
2022/07/18 07:56:22;;;;;;;24.45;7.30;;;;;;;23.32;53.37;102186.69;5019034;28;20021;-54
2022/07/18 07:58:47;;;;;;;20.35;7.57;;;;;;;23.49;53.95;102187.06;5001736;28;20029;-54
2022/07/18 08:01:14;;;;;;;18.63;7.30;;;;;;;23.63;54.15;102177.81;4987090;28;20586;-54
2022/07/18 08:03:39;;;;;;;17.13;7.13;;;;;;;23.63;52.52;102172.34;5008827;28;20112;-54
2022/07/18 08:06:05;;;;;;;22.95;6.82;;;;;;;23.63;52.77;102175.91;5012851;28;20238;-54
2022/07/18 08:08:30;;;;;;;22.60;7.22;;;;;;;23.62;53.34;102157.84;5017783;28;20396;-54
2022/07/18 08:10:56;;;;;;;28.55;7.32;;;;;;;23.77;54.35;102163.03;5018784;28;20029;-54
2022/07/18 08:13:21;;;;;;;15.48;6.40;;;;;;;23.87;52.94;102159.06;5018569;28;20041;-54
2022/07/18 08:15:47;;;;;;;18.25;6.90;;;;;;;23.93;52.34;102161.75;5018473;28;20505;-56
2022/07/18 08:18:12;;;;;;;17.40;6.03;;;;;;;24.09;53.42;102171.28;5013456;28;20405;-55
2022/07/18 08:20:37;;;;;;;19.60;6.32;;;;;;;24.16;50.02;102166.63;4980044;28;20771;-54
2022/07/18 08:23:05;;;;;;;17.95;5.53;;;;;;;24.28;51.53;102171.41;5011797;28;20266;-54
2022/07/18 08:25:33;;;;;;;19.52;6.20;;;;;;;24.39;50.65;102173.44;5006303;28;20047;-55
2022/07/18 08:27:59;;;;;;;25.08;5.43;;;;;;;24.56;48.23;102181.94;5017655;28;20476;-51
2022/07/18 08:30:25;;;;;;;11.70;4.50;;;;;;;24.66;49.96;102190.47;5016079;28;20041;-51
2022/07/18 08:32:50;;;;;;;13.02;4.80;;;;;;;24.83;48.74;102184.44;5004688;28;20045;-51
2022/07/18 08:35:16;;;;;;;16.48;4.35;;;;;;;24.99;48.17;102191.25;5012638;28;20376;-49
2022/07/18 08:37:42;;;;;;;13.82;3.80;;;;;;;25.12;45.68;102189.19;5007432;28;20465;-51
2022/07/18 08:40:08;;;;;;;15.05;3.70;;;;;;;25.26;46.11;102175.44;5015285;28;20030;-52
2022/07/18 08:42:34;;;;;;;14.50;3.83;;;;;;;25.46;45.44;102183.41;5016158;28;20025;-52
2022/07/18 08:45:00;;;;;;;10.95;3.50;;;;;;;25.57;44.04;102182.63;5013339;28;20022;-46
2022/07/18 08:47:29;;;;;;;10.18;2.83;;;;;;;25.69;42.21;102172.56;5016318;28;20025;-51
2022/07/18 08:49:55;;;;;;;12.52;2.95;;;;;;;25.88;42.62;102172.53;5015296;28;20026;-51
2022/07/18 08:52:20;;;;;;;12.93;2.90;;;;;;;25.92;42.92;102167.44;5016580;28;20594;-50
2022/07/18 08:54:48;;;;;;;12.70;3.05;;;;;;;25.95;42.36;102178.81;5016030;28;20104;-51
2022/07/18 08:57:13;;;;;;;12.27;2.97;;;;;;;26.08;42.03;102182.41;5017010;28;20786;-51
2022/07/18 08:59:39;;;;;;;16.42;2.90;;;;;;;26.21;43.20;102169.38;4998298;28;20112;-50
2022/07/18 09:02:06;;;;;;;9.57;2.50;;;;;;;26.27;41.19;102181.28;5015949;28;20025;-51
2022/07/18 09:04:40;;;;;;;12.95;2.70;;;;;;;26.36;40.41;102174.41;5015219;28;20052;-52
2022/07/18 09:07:08;;;;;;;9.57;2.53;;;;;;;26.46;41.04;102175.72;5014782;28;20669;-50
2022/07/18 09:09:37;;;;;;;9.95;2.50;;;;;;;26.48;41.86;102171.69;5015729;28;20504;-51
2022/07/18 09:12:05;;;;;;;12.20;2.60;;;;;;;26.66;41.04;102173.50;5016574;28;20014;-50
2022/07/18 09:14:32;;;;;;;10.65;2.88;;;;;;;26.80;39.46;102174.97;5016737;28;20111;-49
2022/07/18 09:17:03;;;;;;;12.23;2.53;;;;;;;26.96;42.20;102170.66;5015942;28;20100;-51
2022/07/18 09:19:29;;;;;;;8.00;2.78;;;;;;;27.17;41.80;102171.97;5014079;28;20060;-50
2022/07/18 09:21:54;;;;;;;19.45;3.00;;;;;;;27.27;40.35;102174.09;4988334;28;20109;-51
2022/07/18 09:24:19;;;;;;;10.37;2.70;;;;;;;27.29;38.48;102171.13;5000164;28;20480;-49
2022/07/18 09:26:46;;;;;;;6.60;2.50;;;;;;;27.36;40.21;102174.59;5014902;28;20303;-49
2022/07/18 09:29:15;;;;;;;19.77;2.88;;;;;;;27.37;39.37;102168.03;5015703;28;20695;-46
2022/07/18 09:31:49;;;;;;;13.38;2.65;;;;;;;27.51;40.91;102179.56;5015208;28;20040;-48
2022/07/18 09:34:31;;;;;;;13.18;2.80;;;;;;;27.49;37.73;102170.75;5014539;28;20104;-50
2022/07/18 09:36:57;;;;;;;8.85;2.53;;;;;;;27.64;44.66;102176.53;5015813;28;20076;-47
2022/07/18 09:39:22;;;;;;;6.28;2.50;;;;;;;27.75;37.83;102180.34;5015316;28;20109;-49
2022/07/18 09:41:48;;;;;;;5.20;2.60;;;;;;;27.70;36.87;102172.00;5015061;28;20469;-49
2022/07/18 09:44:14;;;;;;;7.78;2.42;;;;;;;27.71;37.01;102177.22;5015358;28;20196;-49
2022/07/18 09:47:02;;;;;;;8.10;2.28;;;;;;;27.76;36.85;102175.69;5014957;28;20098;-46
2022/07/18 09:49:33;;;;;;;11.48;2.55;;;;;;;27.87;38.10;102178.38;5014491;28;20087;-46
2022/07/18 09:52:08;;;;;;;9.85;2.33;;;;;;;27.87;36.83;102174.81;4997867;28;20032;-48
2022/07/18 09:54:37;;;;;;;8.35;2.28;;;;;;;27.95;38.04;102171.66;5014784;28;20459;-50
2022/07/18 09:57:02;;;;;;;8.20;2.15;;;;;;;28.16;38.83;102172.03;5015379;28;20075;-51
2022/07/18 09:59:28;;;;;;;13.55;2.80;;;;;;;28.16;39.01;102169.31;5015161;28;20025;-51
2022/07/18 10:01:53;;;;;;;14.20;2.65;;;;;;;28.22;37.20;102163.66;5015032;28;20436;-51
2022/07/18 10:04:18;;;;;;;11.50;2.67;;;;;;;28.28;37.89;102168.16;4999914;28;20405;-50
2022/07/18 10:06:44;;;;;;;16.00;2.70;;;;;;;28.36;37.71;102166.06;5015115;28;20056;-50
2022/07/18 10:09:10;;;;;;;17.23;2.50;;;;;;;28.52;38.93;102168.00;5013614;28;20276;-50
2022/07/18 10:11:36;;;;;;;10.75;2.67;;;;;;;28.78;37.02;102168.44;5010767;28;20542;-51
2022/07/18 10:14:01;;;;;;;13.57;2.50;;;;;;;28.81;35.82;102162.44;5011437;28;20331;-54
2022/07/18 10:16:26;;;;;;;16.40;2.83;;;;;;;28.98;36.63;102171.47;5010437;28;20423;-55
2022/07/18 10:18:51;;;;;;;11.48;2.55;;;;;;;29.09;36.54;102161.47;4996216;28;20268;-55
2022/07/18 10:21:19;;;;;;;9.25;2.58;;;;;;;29.09;36.15;102166.97;5010197;28;20749;-55
2022/07/18 10:23:46;;;;;;;7.05;2.20;;;;;;;29.02;36.48;102164.41;4989489;28;20029;-53
2022/07/18 10:26:22;;;;;;;11.27;2.80;;;;;;;29.09;35.80;102164.22;5014720;28;20437;-51
2022/07/18 10:29:08;;;;;;;14.82;2.75;;;;;;;29.44;38.59;102171.31;4989802;28;20053;-50
2022/07/18 10:31:39;;;;;;;12.70;2.80;;;;;;;29.48;36.04;102168.88;5013922;28;20029;-53
2022/07/18 10:34:04;;;;;;;14.20;2.80;;;;;;;29.50;35.81;102163.94;4995938;28;20361;-48
2022/07/18 10:36:29;;;;;;;13.77;2.73;;;;;;;29.43;35.07;102171.56;5014827;28;20255;-51
2022/07/18 10:39:09;;;;;;;16.63;2.65;;;;;;;29.56;38.75;102160.97;5015440;28;20036;-51
2022/07/18 10:41:41;;;;;;;12.20;2.50;;;;;;;29.83;37.26;102160.22;5014157;28;20601;-51
2022/07/18 10:44:24;;;;;;;9.95;2.83;;;;;;;29.95;36.96;102157.31;5013518;28;20446;-51
2022/07/18 10:47:23;;;;;;;13.80;2.50;;;;;;;30.11;36.20;102150.88;5014153;28;20032;-51
2022/07/18 10:49:57;;;;;;;23.02;2.67;;;;;;;30.11;36.71;102158.31;5013079;28;20025;-52
2022/07/18 10:52:23;;;;;;;19.48;2.55;;;;;;;30.08;35.47;102154.13;4996166;28;20022;-51
2022/07/18 10:55:04;;;;;;;7.23;2.37;;;;;;;30.12;35.59;102149.75;5014103;28;20022;-52
2022/07/18 10:57:33;;;;;;;10.10;2.72;;;;;;;30.18;37.30;102150.66;5015309;28;20066;-52
2022/07/18 11:00:13;;;;;;;13.50;2.75;;;;;;;30.32;36.12;102153.78;5012009;28;20428;-51
2022/07/18 11:02:40;;;;;;;14.73;2.65;;;;;;;30.46;35.41;102143.19;5010238;28;20334;-52
2022/07/18 11:05:26;;;;;;;10.57;2.50;;;;;;;30.57;36.69;102144.06;4986653;28;20063;-53
2022/07/18 11:07:57;;;;;;;11.13;2.45;;;;;;;30.52;33.43;102144.03;5012251;28;20570;-50
2022/07/18 11:10:41;;;;;;;5.22;2.20;;;;;;;30.52;32.90;102147.66;5018024;28;20034;-51
2022/07/18 11:13:24;;;;;;;11.50;2.30;;;;;;;30.58;33.87;102151.25;5011129;28;20025;-53
2022/07/18 11:16:04;;;;;;;8.27;2.60;;;;;;;30.65;33.57;102138.91;4983656;28;20156;-51